الصفحة الرئيسية
METAR-TAF:

METAR-TAF

مطار :

مطار نينوي أكوينو الدولي

مانيلا, الفلبين

دائرة عرض: 14-31N, خط طول: 121-00E, ارتفاع: 14 متر

مراقبة الطقس الحالي

تاريخ ووقت الإصدار 51 دقيقة قبل الساعة 16:00UTC
ريح 6 عقدة من الشرق
درجة الحرارة 29°درجة مئوية
الرطوبة 62%
ضغط 1010 hPa
الرؤية 10 كم أو أكثر
غيوم قليلة على ارتفاع 2700 قدم

METAR: RPLL 241600Z 10006KT 9999 FEW027 29/21 Q1010 NOSIG RMK A2983

زمن: 00:51 (16:51 UTC)

توقعات

تاريخ ووقت الإصدار 5ساعات و 51 دقيقة قبل الساعة 11:00UTC
التوقعات صالحة من24 الساعة 12 UTC إلى 25 الساعة 18 UTC
ريح 8 عقدة من الشرق/الجنوب الشرقي
الرؤية 10 كم أو أكثر
غيوم قليلة على ارتفاع 2500 قدم
مؤقت
من 25 الساعة 03 UTC إلى 25 الساعة 09 UTC
ريح 14 عقدة من الشرق/الجنوب الشرقي

TAF: RPLL 241100Z 2412/2518 11008KT 9999 FEW025 TX36/2506Z TN27/2421Z TEMPO 2503/2509 11014KT

أرصاد الطقس والتوقعات من أكثر من 4000 مطار (تقارير الطقس للمطار METAR والتنبؤ بالطقس بالمطارTAF).

المحطات المتاحة هي النقط الصفراء والحمراء على الخريطة.

حرك المؤشر فوق النقطة لمعرفة اسم المحطة.

ثم انقر لمعرفة أرصاد وتوقعات الطقس.

لتغيير الخارطة: اضغط على الأزرار الخضراء مع رمز الصليب الأسود للتكبير. على الزر الأخضر مع شرطة للتصغير، أو على الأسهم الخضراء للخرائط المجاورة.


METAR-TAF: